sensor_id;sensor_type;location;lat;lon;timestamp;pressure;altitude;pressure_sealevel;temperature
34807;BMP180;18310;55.586;12.286;2022-12-01T00:01:40;102982.00;;;13.40
34807;BMP180;18310;55.586;12.286;2022-12-01T00:04:43;102975.00;;;13.40
34807;BMP180;18310;55.586;12.286;2022-12-01T00:07:53;102975.00;;;13.40
34807;BMP180;18310;55.586;12.286;2022-12-01T00:11:05;102977.00;;;13.40
34807;BMP180;18310;55.586;12.286;2022-12-01T00:14:07;102983.00;;;13.40
34807;BMP180;18310;55.586;12.286;2022-12-01T00:17:10;102985.00;;;13.30
34807;BMP180;18310;55.586;12.286;2022-12-01T00:20:14;102980.00;;;13.20
34807;BMP180;18310;55.586;12.286;2022-12-01T00:23:17;102972.00;;;13.20
34807;BMP180;18310;55.586;12.286;2022-12-01T00:26:23;102977.00;;;13.10
34807;BMP180;18310;55.586;12.286;2022-12-01T00:29:27;102986.00;;;13.10
34807;BMP180;18310;55.586;12.286;2022-12-01T00:32:30;102993.00;;;13.10
34807;BMP180;18310;55.586;12.286;2022-12-01T00:35:33;102988.00;;;13.10
34807;BMP180;18310;55.586;12.286;2022-12-01T00:38:37;102981.00;;;13.10
34807;BMP180;18310;55.586;12.286;2022-12-01T00:41:41;102984.00;;;13.10
34807;BMP180;18310;55.586;12.286;2022-12-01T00:44:44;102975.00;;;13.10
34807;BMP180;18310;55.586;12.286;2022-12-01T00:47:47;102984.00;;;13.10
34807;BMP180;18310;55.586;12.286;2022-12-01T00:50:52;102978.00;;;13.10
34807;BMP180;18310;55.586;12.286;2022-12-01T00:53:56;102976.00;;;13.10
34807;BMP180;18310;55.586;12.286;2022-12-01T00:57:00;102987.00;;;13.10
34807;BMP180;18310;55.586;12.286;2022-12-01T01:00:05;102982.00;;;13.10
34807;BMP180;18310;55.586;12.286;2022-12-01T01:03:09;102989.00;;;13.10
34807;BMP180;18310;55.586;12.286;2022-12-01T01:06:13;102989.00;;;13.10
34807;BMP180;18310;55.586;12.286;2022-12-01T01:09:16;102983.00;;;13.10
34807;BMP180;18310;55.586;12.286;2022-12-01T01:12:20;102986.00;;;13.10
34807;BMP180;18310;55.586;12.286;2022-12-01T01:15:23;102984.00;;;13.10
34807;BMP180;18310;55.586;12.286;2022-12-01T01:18:27;102986.00;;;13.10
34807;BMP180;18310;55.586;12.286;2022-12-01T01:21:30;102997.00;;;13.10
34807;BMP180;18310;55.586;12.286;2022-12-01T01:24:34;102998.00;;;13.10
34807;BMP180;18310;55.586;12.286;2022-12-01T01:27:38;102996.00;;;13.10
34807;BMP180;18310;55.586;12.286;2022-12-01T01:30:41;103006.00;;;13.10
34807;BMP180;18310;55.586;12.286;2022-12-01T01:33:45;103000.00;;;13.10
34807;BMP180;18310;55.586;12.286;2022-12-01T01:36:48;102993.00;;;13.10
34807;BMP180;18310;55.586;12.286;2022-12-01T01:39:51;103005.00;;;13.10
34807;BMP180;18310;55.586;12.286;2022-12-01T01:42:56;102997.00;;;13.10
34807;BMP180;18310;55.586;12.286;2022-12-01T01:45:59;102991.00;;;13.10
34807;BMP180;18310;55.586;12.286;2022-12-01T01:49:06;102992.00;;;13.10
34807;BMP180;18310;55.586;12.286;2022-12-01T01:52:10;102988.00;;;13.10
34807;BMP180;18310;55.586;12.286;2022-12-01T01:55:14;102998.00;;;13.00
34807;BMP180;18310;55.586;12.286;2022-12-01T01:58:19;102998.00;;;13.00
34807;BMP180;18310;55.586;12.286;2022-12-01T02:01:22;102991.00;;;13.00
34807;BMP180;18310;55.586;12.286;2022-12-01T02:04:26;102988.00;;;13.00
34807;BMP180;18310;55.586;12.286;2022-12-01T02:07:30;102994.00;;;13.00
34807;BMP180;18310;55.586;12.286;2022-12-01T02:10:50;103000.00;;;13.00
34807;BMP180;18310;55.586;12.286;2022-12-01T02:14:07;102988.00;;;13.00
34807;BMP180;18310;55.586;12.286;2022-12-01T02:17:28;102988.00;;;13.00
34807;BMP180;18310;55.586;12.286;2022-12-01T02:24:54;102994.00;;;13.00
34807;BMP180;18310;55.586;12.286;2022-12-01T02:28:53;102995.00;;;13.00
34807;BMP180;18310;55.586;12.286;2022-12-01T02:32:12;102992.00;;;13.00
34807;BMP180;18310;55.586;12.286;2022-12-01T02:35:28;102994.00;;;13.00
34807;BMP180;18310;55.586;12.286;2022-12-01T02:38:39;102991.00;;;13.00
34807;BMP180;18310;55.586;12.286;2022-12-01T02:41:50;102986.00;;;13.10
34807;BMP180;18310;55.586;12.286;2022-12-01T02:44:56;102988.00;;;13.10
34807;BMP180;18310;55.586;12.286;2022-12-01T02:48:04;102994.00;;;13.10
34807;BMP180;18310;55.586;12.286;2022-12-01T02:51:13;102987.00;;;13.10
34807;BMP180;18310;55.586;12.286;2022-12-01T02:54:19;102979.00;;;13.10
34807;BMP180;18310;55.586;12.286;2022-12-01T02:57:23;102986.00;;;13.00
34807;BMP180;18310;55.586;12.286;2022-12-01T03:00:27;102976.00;;;12.90
34807;BMP180;18310;55.586;12.286;2022-12-01T03:03:58;102982.00;;;12.90
34807;BMP180;18310;55.586;12.286;2022-12-01T03:07:14;102989.00;;;12.80
34807;BMP180;18310;55.586;12.286;2022-12-01T03:10:28;102982.00;;;12.80
34807;BMP180;18310;55.586;12.286;2022-12-01T03:13:41;102973.00;;;12.70
34807;BMP180;18310;55.586;12.286;2022-12-01T03:16:50;102981.00;;;12.70
34807;BMP180;18310;55.586;12.286;2022-12-01T03:20:03;102980.00;;;12.70
34807;BMP180;18310;55.586;12.286;2022-12-01T03:23:13;102983.00;;;12.70
34807;BMP180;18310;55.586;12.286;2022-12-01T03:26:21;102981.00;;;12.70
34807;BMP180;18310;55.586;12.286;2022-12-01T03:29:31;102977.00;;;12.60
34807;BMP180;18310;55.586;12.286;2022-12-01T03:32:41;102974.00;;;12.60
34807;BMP180;18310;55.586;12.286;2022-12-01T03:35:54;102967.00;;;12.60
34807;BMP180;18310;55.586;12.286;2022-12-01T03:39:09;102969.00;;;12.60
34807;BMP180;18310;55.586;12.286;2022-12-01T03:42:22;102971.00;;;12.50
34807;BMP180;18310;55.586;12.286;2022-12-01T03:45:33;102966.00;;;12.50
34807;BMP180;18310;55.586;12.286;2022-12-01T03:48:39;102969.00;;;12.50
34807;BMP180;18310;55.586;12.286;2022-12-01T03:52:01;102963.00;;;12.50
34807;BMP180;18310;55.586;12.286;2022-12-01T03:55:12;102960.00;;;12.40
34807;BMP180;18310;55.586;12.286;2022-12-01T03:58:20;102963.00;;;12.40
34807;BMP180;18310;55.586;12.286;2022-12-01T04:01:28;102972.00;;;12.40
34807;BMP180;18310;55.586;12.286;2022-12-01T04:04:33;102974.00;;;12.40
34807;BMP180;18310;55.586;12.286;2022-12-01T04:07:39;102969.00;;;12.40
34807;BMP180;18310;55.586;12.286;2022-12-01T04:10:42;102978.00;;;12.40
34807;BMP180;18310;55.586;12.286;2022-12-01T04:13:45;102973.00;;;12.30
34807;BMP180;18310;55.586;12.286;2022-12-01T04:16:47;102971.00;;;12.30
34807;BMP180;18310;55.586;12.286;2022-12-01T04:19:50;102967.00;;;12.30
34807;BMP180;18310;55.586;12.286;2022-12-01T04:22:55;102967.00;;;12.30
34807;BMP180;18310;55.586;12.286;2022-12-01T04:25:58;102966.00;;;12.30
34807;BMP180;18310;55.586;12.286;2022-12-01T04:29:04;102972.00;;;12.30
34807;BMP180;18310;55.586;12.286;2022-12-01T04:32:08;102972.00;;;12.40
34807;BMP180;18310;55.586;12.286;2022-12-01T04:35:11;102977.00;;;12.40
34807;BMP180;18310;55.586;12.286;2022-12-01T04:38:16;102978.00;;;12.40
34807;BMP180;18310;55.586;12.286;2022-12-01T04:41:19;102981.00;;;12.50
34807;BMP180;18310;55.586;12.286;2022-12-01T04:44:22;102988.00;;;12.60
34807;BMP180;18310;55.586;12.286;2022-12-01T04:47:30;102987.00;;;12.60
34807;BMP180;18310;55.586;12.286;2022-12-01T04:50:33;102985.00;;;12.70
34807;BMP180;18310;55.586;12.286;2022-12-01T04:53:38;102987.00;;;12.80
34807;BMP180;18310;55.586;12.286;2022-12-01T04:56:41;102988.00;;;12.80
34807;BMP180;18310;55.586;12.286;2022-12-01T04:59:44;102987.00;;;12.90
34807;BMP180;18310;55.586;12.286;2022-12-01T05:02:48;102990.00;;;13.00
34807;BMP180;18310;55.586;12.286;2022-12-01T05:06:00;103001.00;;;13.10
34807;BMP180;18310;55.586;12.286;2022-12-01T05:09:06;102990.00;;;13.10
34807;BMP180;18310;55.586;12.286;2022-12-01T05:12:15;102990.00;;;13.10
34807;BMP180;18310;55.586;12.286;2022-12-01T05:15:18;103003.00;;;13.20
34807;BMP180;18310;55.586;12.286;2022-12-01T05:18:21;103004.00;;;13.20
34807;BMP180;18310;55.586;12.286;2022-12-01T05:21:24;103004.00;;;13.20
34807;BMP180;18310;55.586;12.286;2022-12-01T05:24:28;102999.00;;;13.20
34807;BMP180;18310;55.586;12.286;2022-12-01T05:27:31;103005.00;;;13.20
34807;BMP180;18310;55.586;12.286;2022-12-01T05:30:34;103005.00;;;13.20
34807;BMP180;18310;55.586;12.286;2022-12-01T05:33:36;103013.00;;;13.20
34807;BMP180;18310;55.586;12.286;2022-12-01T05:36:40;103010.00;;;13.20
34807;BMP180;18310;55.586;12.286;2022-12-01T05:39:44;103014.00;;;13.20
34807;BMP180;18310;55.586;12.286;2022-12-01T05:42:47;103021.00;;;13.20
34807;BMP180;18310;55.586;12.286;2022-12-01T05:45:51;103019.00;;;13.20
34807;BMP180;18310;55.586;12.286;2022-12-01T05:48:54;103020.00;;;13.20
34807;BMP180;18310;55.586;12.286;2022-12-01T05:51:57;103020.00;;;13.20
34807;BMP180;18310;55.586;12.286;2022-12-01T05:55:01;103022.00;;;13.20
34807;BMP180;18310;55.586;12.286;2022-12-01T05:58:06;103023.00;;;13.20
34807;BMP180;18310;55.586;12.286;2022-12-01T06:01:09;103020.00;;;13.20
34807;BMP180;18310;55.586;12.286;2022-12-01T06:04:13;103025.00;;;13.20
34807;BMP180;18310;55.586;12.286;2022-12-01T06:07:16;103024.00;;;13.20
34807;BMP180;18310;55.586;12.286;2022-12-01T06:10:22;103018.00;;;13.30
34807;BMP180;18310;55.586;12.286;2022-12-01T06:13:25;103026.00;;;13.30
34807;BMP180;18310;55.586;12.286;2022-12-01T06:16:28;103020.00;;;13.30
34807;BMP180;18310;55.586;12.286;2022-12-01T06:19:31;103029.00;;;13.30
34807;BMP180;18310;55.586;12.286;2022-12-01T06:22:34;103032.00;;;13.40
34807;BMP180;18310;55.586;12.286;2022-12-01T06:25:39;103033.00;;;13.40
34807;BMP180;18310;55.586;12.286;2022-12-01T06:28:42;103033.00;;;13.40
34807;BMP180;18310;55.586;12.286;2022-12-01T06:31:45;103021.00;;;13.40
34807;BMP180;18310;55.586;12.286;2022-12-01T06:34:48;103044.00;;;13.40
34807;BMP180;18310;55.586;12.286;2022-12-01T06:37:52;103037.00;;;13.50
34807;BMP180;18310;55.586;12.286;2022-12-01T06:40:57;103045.00;;;13.50
34807;BMP180;18310;55.586;12.286;2022-12-01T06:44:00;103043.00;;;13.40
34807;BMP180;18310;55.586;12.286;2022-12-01T06:47:03;103037.00;;;13.50
34807;BMP180;18310;55.586;12.286;2022-12-01T06:50:09;103044.00;;;13.50
34807;BMP180;18310;55.586;12.286;2022-12-01T06:53:13;103040.00;;;13.50
34807;BMP180;18310;55.586;12.286;2022-12-01T06:56:17;103044.00;;;13.60
34807;BMP180;18310;55.586;12.286;2022-12-01T06:59:20;103035.00;;;13.50
34807;BMP180;18310;55.586;12.286;2022-12-01T07:02:24;103037.00;;;13.50
34807;BMP180;18310;55.586;12.286;2022-12-01T07:05:28;103040.00;;;13.50
34807;BMP180;18310;55.586;12.286;2022-12-01T07:08:31;103041.00;;;13.50
34807;BMP180;18310;55.586;12.286;2022-12-01T07:11:36;103043.00;;;13.50
34807;BMP180;18310;55.586;12.286;2022-12-01T07:14:39;103041.00;;;13.50
34807;BMP180;18310;55.586;12.286;2022-12-01T07:17:43;103048.00;;;13.60
34807;BMP180;18310;55.586;12.286;2022-12-01T07:20:46;103049.00;;;13.60
34807;BMP180;18310;55.586;12.286;2022-12-01T07:23:49;103047.00;;;13.60
34807;BMP180;18310;55.586;12.286;2022-12-01T07:26:53;103039.00;;;13.60
34807;BMP180;18310;55.586;12.286;2022-12-01T07:29:56;103046.00;;;13.60
34807;BMP180;18310;55.586;12.286;2022-12-01T07:32:59;103042.00;;;13.60
34807;BMP180;18310;55.586;12.286;2022-12-01T07:36:03;103045.00;;;13.60
34807;BMP180;18310;55.586;12.286;2022-12-01T07:39:07;103038.00;;;13.60
34807;BMP180;18310;55.586;12.286;2022-12-01T07:42:12;103046.00;;;13.60
34807;BMP180;18310;55.586;12.286;2022-12-01T07:45:15;103049.00;;;13.60
34807;BMP180;18310;55.586;12.286;2022-12-01T07:48:18;103051.00;;;13.70
34807;BMP180;18310;55.586;12.286;2022-12-01T07:51:23;103048.00;;;13.70
34807;BMP180;18310;55.586;12.286;2022-12-01T07:54:26;103055.00;;;13.70
34807;BMP180;18310;55.586;12.286;2022-12-01T07:57:31;103056.00;;;13.70
34807;BMP180;18310;55.586;12.286;2022-12-01T08:00:34;103063.00;;;13.80
34807;BMP180;18310;55.586;12.286;2022-12-01T08:03:37;103061.00;;;13.80
34807;BMP180;18310;55.586;12.286;2022-12-01T08:06:41;103069.00;;;13.80
34807;BMP180;18310;55.586;12.286;2022-12-01T08:09:44;103071.00;;;13.80
34807;BMP180;18310;55.586;12.286;2022-12-01T08:12:48;103072.00;;;13.80
34807;BMP180;18310;55.586;12.286;2022-12-01T08:15:51;103072.00;;;13.80
34807;BMP180;18310;55.586;12.286;2022-12-01T08:18:54;103077.00;;;14.00
34807;BMP180;18310;55.586;12.286;2022-12-01T08:21:57;103068.00;;;14.00
34807;BMP180;18310;55.586;12.286;2022-12-01T08:25:00;103072.00;;;14.10
34807;BMP180;18310;55.586;12.286;2022-12-01T08:28:05;103084.00;;;14.10
34807;BMP180;18310;55.586;12.286;2022-12-01T08:31:11;103081.00;;;14.10
34807;BMP180;18310;55.586;12.286;2022-12-01T08:34:14;103084.00;;;14.10
34807;BMP180;18310;55.586;12.286;2022-12-01T08:37:17;103080.00;;;14.00
34807;BMP180;18310;55.586;12.286;2022-12-01T08:40:21;103085.00;;;14.00
34807;BMP180;18310;55.586;12.286;2022-12-01T08:43:25;103092.00;;;14.00
34807;BMP180;18310;55.586;12.286;2022-12-01T08:46:48;103088.00;;;14.00
34807;BMP180;18310;55.586;12.286;2022-12-01T08:49:51;103084.00;;;14.00
34807;BMP180;18310;55.586;12.286;2022-12-01T08:52:55;103096.00;;;13.90
34807;BMP180;18310;55.586;12.286;2022-12-01T08:56:00;103096.00;;;13.90
34807;BMP180;18310;55.586;12.286;2022-12-01T08:59:05;103094.00;;;13.80
34807;BMP180;18310;55.586;12.286;2022-12-01T09:02:13;103098.00;;;13.80
34807;BMP180;18310;55.586;12.286;2022-12-01T09:05:16;103103.00;;;13.90
34807;BMP180;18310;55.586;12.286;2022-12-01T09:08:19;103104.00;;;13.90
34807;BMP180;18310;55.586;12.286;2022-12-01T09:11:36;103104.00;;;13.90
34807;BMP180;18310;55.586;12.286;2022-12-01T09:14:42;103105.00;;;13.90
34807;BMP180;18310;55.586;12.286;2022-12-01T09:17:48;103104.00;;;13.90
34807;BMP180;18310;55.586;12.286;2022-12-01T09:20:52;103099.00;;;13.90
34807;BMP180;18310;55.586;12.286;2022-12-01T09:23:56;103105.00;;;14.00
34807;BMP180;18310;55.586;12.286;2022-12-01T09:27:00;103104.00;;;14.00
34807;BMP180;18310;55.586;12.286;2022-12-01T09:30:07;103109.00;;;13.90
34807;BMP180;18310;55.586;12.286;2022-12-01T09:33:11;103100.00;;;13.90
34807;BMP180;18310;55.586;12.286;2022-12-01T09:36:14;103097.00;;;13.90
34807;BMP180;18310;55.586;12.286;2022-12-01T09:39:19;103100.00;;;14.00
34807;BMP180;18310;55.586;12.286;2022-12-01T09:42:22;103096.00;;;14.00
34807;BMP180;18310;55.586;12.286;2022-12-01T09:45:41;103091.00;;;14.10
34807;BMP180;18310;55.586;12.286;2022-12-01T09:48:50;103097.00;;;14.10
34807;BMP180;18310;55.586;12.286;2022-12-01T09:51:54;103088.00;;;14.10
34807;BMP180;18310;55.586;12.286;2022-12-01T09:54:59;103095.00;;;14.20
34807;BMP180;18310;55.586;12.286;2022-12-01T09:58:04;103092.00;;;14.20
34807;BMP180;18310;55.586;12.286;2022-12-01T10:01:19;103086.00;;;14.20
34807;BMP180;18310;55.586;12.286;2022-12-01T10:04:35;103099.00;;;14.30
34807;BMP180;18310;55.586;12.286;2022-12-01T10:07:47;103099.00;;;14.30
34807;BMP180;18310;55.586;12.286;2022-12-01T10:10:59;103088.00;;;14.20
34807;BMP180;18310;55.586;12.286;2022-12-01T10:14:13;103089.00;;;14.20
34807;BMP180;18310;55.586;12.286;2022-12-01T10:17:31;103086.00;;;14.20
34807;BMP180;18310;55.586;12.286;2022-12-01T10:20:45;103094.00;;;14.30
34807;BMP180;18310;55.586;12.286;2022-12-01T10:24:09;103093.00;;;14.30
34807;BMP180;18310;55.586;12.286;2022-12-01T10:27:30;103087.00;;;14.40
34807;BMP180;18310;55.586;12.286;2022-12-01T10:30:46;103087.00;;;14.40
34807;BMP180;18310;55.586;12.286;2022-12-01T10:33:59;103091.00;;;14.30
34807;BMP180;18310;55.586;12.286;2022-12-01T10:37:04;103086.00;;;14.30
34807;BMP180;18310;55.586;12.286;2022-12-01T10:40:13;103083.00;;;14.30
34807;BMP180;18310;55.586;12.286;2022-12-01T10:43:16;103076.00;;;14.30
34807;BMP180;18310;55.586;12.286;2022-12-01T10:46:26;103073.00;;;14.30
34807;BMP180;18310;55.586;12.286;2022-12-01T10:49:37;103077.00;;;14.40
34807;BMP180;18310;55.586;12.286;2022-12-01T10:52:47;103077.00;;;14.40
34807;BMP180;18310;55.586;12.286;2022-12-01T10:56:02;103083.00;;;14.40
34807;BMP180;18310;55.586;12.286;2022-12-01T10:59:25;103077.00;;;14.40
34807;BMP180;18310;55.586;12.286;2022-12-01T11:02:30;103073.00;;;14.40
34807;BMP180;18310;55.586;12.286;2022-12-01T11:05:39;103073.00;;;14.40
34807;BMP180;18310;55.586;12.286;2022-12-01T11:08:50;103075.00;;;14.50
34807;BMP180;18310;55.586;12.286;2022-12-01T11:11:56;103082.00;;;14.50
34807;BMP180;18310;55.586;12.286;2022-12-01T11:15:01;103070.00;;;14.60
34807;BMP180;18310;55.586;12.286;2022-12-01T11:18:05;103062.00;;;14.60
34807;BMP180;18310;55.586;12.286;2022-12-01T11:21:27;103063.00;;;14.50
34807;BMP180;18310;55.586;12.286;2022-12-01T11:24:42;103067.00;;;14.60
34807;BMP180;18310;55.586;12.286;2022-12-01T11:27:49;103064.00;;;14.50
34807;BMP180;18310;55.586;12.286;2022-12-01T11:30:56;103067.00;;;14.50
34807;BMP180;18310;55.586;12.286;2022-12-01T11:34:00;103065.00;;;14.60
34807;BMP180;18310;55.586;12.286;2022-12-01T11:37:14;103063.00;;;14.60
34807;BMP180;18310;55.586;12.286;2022-12-01T11:40:23;103066.00;;;14.60
34807;BMP180;18310;55.586;12.286;2022-12-01T11:43:29;103065.00;;;14.60
34807;BMP180;18310;55.586;12.286;2022-12-01T11:46:38;103067.00;;;14.70
34807;BMP180;18310;55.586;12.286;2022-12-01T11:49:54;103064.00;;;14.70
34807;BMP180;18310;55.586;12.286;2022-12-01T11:52:59;103057.00;;;14.70
34807;BMP180;18310;55.586;12.286;2022-12-01T11:56:16;103061.00;;;14.80
34807;BMP180;18310;55.586;12.286;2022-12-01T11:59:23;103075.00;;;14.80
34807;BMP180;18310;55.586;12.286;2022-12-01T12:02:40;103074.00;;;14.90
34807;BMP180;18310;55.586;12.286;2022-12-01T12:06:07;103080.00;;;14.90
34807;BMP180;18310;55.586;12.286;2022-12-01T12:09:58;103077.00;;;15.00
34807;BMP180;18310;55.586;12.286;2022-12-01T12:13:34;103079.00;;;14.90
34807;BMP180;18310;55.586;12.286;2022-12-01T12:17:07;103080.00;;;14.90
34807;BMP180;18310;55.586;12.286;2022-12-01T12:20:34;103084.00;;;14.90
34807;BMP180;18310;55.586;12.286;2022-12-01T12:24:00;103085.00;;;14.90
34807;BMP180;18310;55.586;12.286;2022-12-01T12:27:17;103088.00;;;15.00
34807;BMP180;18310;55.586;12.286;2022-12-01T12:30:27;103077.00;;;15.00
34807;BMP180;18310;55.586;12.286;2022-12-01T12:33:50;103084.00;;;15.00
34807;BMP180;18310;55.586;12.286;2022-12-01T12:37:09;103083.00;;;15.10
34807;BMP180;18310;55.586;12.286;2022-12-01T12:40:39;103071.00;;;15.00
34807;BMP180;18310;55.586;12.286;2022-12-01T12:44:02;103074.00;;;15.00
34807;BMP180;18310;55.586;12.286;2022-12-01T12:47:24;103074.00;;;15.00
34807;BMP180;18310;55.586;12.286;2022-12-01T12:50:38;103067.00;;;15.00
34807;BMP180;18310;55.586;12.286;2022-12-01T12:53:51;103067.00;;;15.00
34807;BMP180;18310;55.586;12.286;2022-12-01T12:57:04;103068.00;;;15.00
34807;BMP180;18310;55.586;12.286;2022-12-01T13:00:16;103069.00;;;14.90
34807;BMP180;18310;55.586;12.286;2022-12-01T13:03:37;103054.00;;;14.90
34807;BMP180;18310;55.586;12.286;2022-12-01T13:06:50;103060.00;;;14.80
34807;BMP180;18310;55.586;12.286;2022-12-01T13:09:59;103051.00;;;14.70
34807;BMP180;18310;55.586;12.286;2022-12-01T13:13:21;103056.00;;;14.60
34807;BMP180;18310;55.586;12.286;2022-12-01T13:16:32;103047.00;;;14.50
34807;BMP180;18310;55.586;12.286;2022-12-01T13:19:39;103043.00;;;14.50
34807;BMP180;18310;55.586;12.286;2022-12-01T13:22:44;103042.00;;;14.40
34807;BMP180;18310;55.586;12.286;2022-12-01T13:25:52;103043.00;;;14.30
34807;BMP180;18310;55.586;12.286;2022-12-01T13:28:57;103045.00;;;14.30
34807;BMP180;18310;55.586;12.286;2022-12-01T13:32:02;103039.00;;;14.20
34807;BMP180;18310;55.586;12.286;2022-12-01T13:35:22;103038.00;;;14.20
34807;BMP180;18310;55.586;12.286;2022-12-01T13:38:29;103033.00;;;14.20
34807;BMP180;18310;55.586;12.286;2022-12-01T13:41:35;103036.00;;;14.30
34807;BMP180;18310;55.586;12.286;2022-12-01T13:44:42;103028.00;;;14.30
34807;BMP180;18310;55.586;12.286;2022-12-01T13:47:53;103022.00;;;14.30
34807;BMP180;18310;55.586;12.286;2022-12-01T13:50:59;103024.00;;;14.20
34807;BMP180;18310;55.586;12.286;2022-12-01T13:54:24;103014.00;;;14.20
34807;BMP180;18310;55.586;12.286;2022-12-01T13:57:32;103020.00;;;14.20
34807;BMP180;18310;55.586;12.286;2022-12-01T14:00:36;103021.00;;;14.30
34807;BMP180;18310;55.586;12.286;2022-12-01T14:03:40;103019.00;;;14.30
34807;BMP180;18310;55.586;12.286;2022-12-01T14:07:19;103028.00;;;14.30
34807;BMP180;18310;55.586;12.286;2022-12-01T14:10:29;103036.00;;;14.30
34807;BMP180;18310;55.586;12.286;2022-12-01T14:13:47;103030.00;;;14.40
34807;BMP180;18310;55.586;12.286;2022-12-01T14:16:53;103037.00;;;14.30
34807;BMP180;18310;55.586;12.286;2022-12-01T14:20:06;103032.00;;;14.40
34807;BMP180;18310;55.586;12.286;2022-12-01T14:23:25;103036.00;;;14.30
34807;BMP180;18310;55.586;12.286;2022-12-01T14:26:30;103035.00;;;14.30
34807;BMP180;18310;55.586;12.286;2022-12-01T14:29:38;103031.00;;;14.30
34807;BMP180;18310;55.586;12.286;2022-12-01T14:32:43;103042.00;;;14.30
34807;BMP180;18310;55.586;12.286;2022-12-01T14:35:46;103033.00;;;14.30
34807;BMP180;18310;55.586;12.286;2022-12-01T14:38:59;103033.00;;;14.30
34807;BMP180;18310;55.586;12.286;2022-12-01T14:42:23;103034.00;;;14.20
34807;BMP180;18310;55.586;12.286;2022-12-01T14:45:55;103035.00;;;14.20
34807;BMP180;18310;55.586;12.286;2022-12-01T14:49:04;103045.00;;;14.20
34807;BMP180;18310;55.586;12.286;2022-12-01T14:52:23;103039.00;;;14.20
34807;BMP180;18310;55.586;12.286;2022-12-01T14:55:34;103045.00;;;14.20
34807;BMP180;18310;55.586;12.286;2022-12-01T14:58:37;103037.00;;;14.10
34807;BMP180;18310;55.586;12.286;2022-12-01T15:01:42;103041.00;;;14.10
34807;BMP180;18310;55.586;12.286;2022-12-01T15:05:05;103043.00;;;14.20
34807;BMP180;18310;55.586;12.286;2022-12-01T15:08:19;103042.00;;;14.20
34807;BMP180;18310;55.586;12.286;2022-12-01T15:11:53;103047.00;;;14.20
34807;BMP180;18310;55.586;12.286;2022-12-01T15:14:56;103047.00;;;14.20
34807;BMP180;18310;55.586;12.286;2022-12-01T15:18:01;103045.00;;;14.20
34807;BMP180;18310;55.586;12.286;2022-12-01T15:21:08;103049.00;;;14.20
34807;BMP180;18310;55.586;12.286;2022-12-01T15:24:22;103048.00;;;14.20
34807;BMP180;18310;55.586;12.286;2022-12-01T15:27:28;103043.00;;;14.20
34807;BMP180;18310;55.586;12.286;2022-12-01T15:30:31;103049.00;;;14.20
34807;BMP180;18310;55.586;12.286;2022-12-01T15:33:42;103046.00;;;14.20
34807;BMP180;18310;55.586;12.286;2022-12-01T15:36:48;103047.00;;;14.20
34807;BMP180;18310;55.586;12.286;2022-12-01T15:39:53;103042.00;;;14.20
34807;BMP180;18310;55.586;12.286;2022-12-01T15:43:20;103042.00;;;14.20
34807;BMP180;18310;55.586;12.286;2022-12-01T15:46:28;103041.00;;;14.20
34807;BMP180;18310;55.586;12.286;2022-12-01T15:49:33;103040.00;;;14.10
34807;BMP180;18310;55.586;12.286;2022-12-01T15:52:42;103041.00;;;14.10
34807;BMP180;18310;55.586;12.286;2022-12-01T15:55:47;103041.00;;;14.20
34807;BMP180;18310;55.586;12.286;2022-12-01T15:59:06;103045.00;;;14.20
34807;BMP180;18310;55.586;12.286;2022-12-01T16:02:24;103044.00;;;14.20
34807;BMP180;18310;55.586;12.286;2022-12-01T16:05:32;103040.00;;;14.10
34807;BMP180;18310;55.586;12.286;2022-12-01T16:08:37;103043.00;;;14.10
34807;BMP180;18310;55.586;12.286;2022-12-01T16:12:23;103044.00;;;14.10
34807;BMP180;18310;55.586;12.286;2022-12-01T16:15:26;103041.00;;;14.10
34807;BMP180;18310;55.586;12.286;2022-12-01T16:18:31;103044.00;;;14.10
34807;BMP180;18310;55.586;12.286;2022-12-01T16:21:43;103047.00;;;14.10
34807;BMP180;18310;55.586;12.286;2022-12-01T16:24:51;103043.00;;;14.10
34807;BMP180;18310;55.586;12.286;2022-12-01T16:27:57;103041.00;;;14.10
34807;BMP180;18310;55.586;12.286;2022-12-01T16:31:01;103040.00;;;14.10
34807;BMP180;18310;55.586;12.286;2022-12-01T16:34:13;103037.00;;;14.10
34807;BMP180;18310;55.586;12.286;2022-12-01T16:37:37;103039.00;;;14.00
34807;BMP180;18310;55.586;12.286;2022-12-01T16:40:40;103036.00;;;14.00
34807;BMP180;18310;55.586;12.286;2022-12-01T16:43:45;103038.00;;;13.90
34807;BMP180;18310;55.586;12.286;2022-12-01T16:47:13;103039.00;;;13.90
34807;BMP180;18310;55.586;12.286;2022-12-01T16:50:20;103033.00;;;13.90
34807;BMP180;18310;55.586;12.286;2022-12-01T16:53:24;103031.00;;;13.90
34807;BMP180;18310;55.586;12.286;2022-12-01T16:56:27;103034.00;;;13.90
34807;BMP180;18310;55.586;12.286;2022-12-01T16:59:31;103034.00;;;13.80
34807;BMP180;18310;55.586;12.286;2022-12-01T17:02:34;103035.00;;;13.80
34807;BMP180;18310;55.586;12.286;2022-12-01T17:05:38;103037.00;;;13.70
34807;BMP180;18310;55.586;12.286;2022-12-01T17:08:41;103042.00;;;13.60
34807;BMP180;18310;55.586;12.286;2022-12-01T17:11:46;103047.00;;;13.60
34807;BMP180;18310;55.586;12.286;2022-12-01T17:14:50;103047.00;;;13.50
34807;BMP180;18310;55.586;12.286;2022-12-01T17:17:53;103050.00;;;13.40
34807;BMP180;18310;55.586;12.286;2022-12-01T17:20:58;103043.00;;;13.40
34807;BMP180;18310;55.586;12.286;2022-12-01T17:24:01;103045.00;;;13.40
34807;BMP180;18310;55.586;12.286;2022-12-01T17:27:05;103050.00;;;13.30
34807;BMP180;18310;55.586;12.286;2022-12-01T17:30:11;103060.00;;;13.30
34807;BMP180;18310;55.586;12.286;2022-12-01T17:33:14;103059.00;;;13.30
34807;BMP180;18310;55.586;12.286;2022-12-01T17:36:18;103050.00;;;13.20
34807;BMP180;18310;55.586;12.286;2022-12-01T17:39:21;103055.00;;;13.20